createdAt,value
2018-12-20T00:00:30.050Z,0.00
2018-12-20T00:01:29.970Z,0.00
2018-12-20T00:02:29.972Z,0.00
2018-12-20T00:03:29.987Z,0.00
2018-12-20T00:04:30.004Z,0.00
2018-12-20T00:05:30.014Z,0.00
2018-12-20T00:06:30.070Z,0.00
2018-12-20T00:07:30.043Z,0.00
2018-12-20T00:08:30.065Z,0.00
2018-12-20T00:09:30.218Z,0.00
2018-12-20T00:10:30.184Z,0.00
2018-12-20T00:11:30.169Z,0.00
2018-12-20T00:12:30.149Z,0.00
2018-12-20T00:13:30.155Z,0.00
2018-12-20T00:14:30.246Z,0.00
2018-12-20T00:15:30.222Z,0.00
2018-12-20T00:16:30.221Z,0.00
2018-12-20T00:17:30.281Z,0.00
2018-12-20T00:18:30.271Z,0.00
2018-12-20T00:19:30.386Z,0.00
2018-12-20T00:20:30.379Z,0.00
2018-12-20T00:21:30.373Z,0.00
2018-12-20T00:22:30.402Z,0.00
2018-12-20T00:23:30.428Z,0.00
2018-12-20T00:24:30.359Z,0.00
2018-12-20T00:25:30.388Z,0.00
2018-12-20T00:26:30.366Z,0.00
2018-12-20T00:27:30.418Z,0.00
2018-12-20T00:28:30.489Z,0.00
2018-12-20T00:29:30.514Z,0.00
2018-12-20T00:30:30.463Z,0.00
2018-12-20T00:31:30.449Z,0.00
2018-12-20T00:32:30.483Z,0.00
2018-12-20T00:33:30.499Z,0.00
2018-12-20T00:34:30.649Z,0.00
2018-12-20T00:35:30.614Z,0.00
2018-12-20T00:36:30.554Z,0.00
2018-12-20T00:37:30.592Z,0.00
2018-12-20T00:38:30.702Z,0.00
2018-12-20T00:39:30.611Z,0.00
2018-12-20T00:40:30.624Z,0.00
2018-12-20T00:41:30.613Z,0.00
2018-12-20T00:42:30.697Z,0.00
2018-12-20T00:43:30.689Z,0.00
2018-12-20T00:44:37.275Z,0.00
2018-12-20T00:45:30.694Z,0.00
2018-12-20T00:46:30.820Z,0.00
2018-12-20T00:47:30.724Z,0.00
2018-12-20T00:48:30.734Z,0.00
2018-12-20T00:49:30.795Z,0.00
2018-12-20T00:50:30.895Z,0.00
2018-12-20T00:51:30.930Z,0.00
2018-12-20T00:52:30.802Z,0.00
2018-12-20T00:53:30.815Z,0.00
2018-12-20T00:54:30.829Z,0.00
2018-12-20T00:55:30.864Z,0.00
2018-12-20T00:56:30.867Z,0.00
2018-12-20T00:57:31.066Z,0.00
2018-12-20T00:58:30.900Z,0.00
2018-12-20T00:59:31.102Z,0.00
2018-12-20T01:00:30.937Z,0.00
2018-12-20T01:01:30.968Z,0.00
2018-12-20T01:02:31.020Z,0.00
2018-12-20T01:03:30.988Z,0.00
2018-12-20T01:04:31.008Z,0.00
2018-12-20T01:05:31.020Z,0.00
2018-12-20T01:06:31.032Z,0.00
2018-12-20T01:07:31.251Z,0.00
2018-12-20T01:08:31.230Z,0.00
2018-12-20T01:09:31.082Z,0.00
2018-12-20T01:10:31.129Z,0.00
2018-12-20T01:11:31.183Z,0.00
2018-12-20T01:12:31.135Z,0.00
2018-12-20T01:13:31.165Z,0.00
2018-12-20T01:14:31.248Z,0.00
2018-12-20T01:15:31.256Z,0.00
2018-12-20T01:16:31.201Z,0.00
2018-12-20T01:17:31.215Z,0.00
2018-12-20T01:18:31.272Z,0.00
2018-12-20T01:19:31.251Z,0.00
2018-12-20T01:20:31.279Z,0.00
2018-12-20T01:21:31.286Z,0.00
2018-12-20T01:22:31.340Z,0.00
2018-12-20T01:23:31.327Z,0.00
2018-12-20T01:24:31.339Z,0.00
2018-12-20T01:25:31.526Z,0.00
2018-12-20T01:26:31.392Z,0.00
2018-12-20T01:27:31.389Z,0.00
2018-12-20T01:28:31.410Z,0.00
2018-12-20T01:29:31.415Z,0.00
2018-12-20T01:30:31.649Z,0.00
2018-12-20T01:31:31.479Z,0.00
2018-12-20T01:32:31.584Z,0.00
2018-12-20T01:33:31.712Z,0.00
2018-12-20T01:34:31.604Z,0.00
2018-12-20T01:35:31.679Z,0.00
2018-12-20T01:36:31.662Z,0.00
2018-12-20T01:37:31.613Z,0.00
2018-12-20T01:38:31.666Z,0.00
2018-12-20T01:39:31.653Z,0.00
2018-12-20T01:40:31.684Z,0.00
2018-12-20T01:41:31.619Z,0.00
2018-12-20T01:42:31.722Z,0.00
2018-12-20T01:43:31.681Z,0.00
2018-12-20T01:44:31.772Z,0.00
2018-12-20T01:45:31.811Z,0.00
2018-12-20T01:46:31.725Z,0.00
2018-12-20T01:47:31.816Z,0.00
2018-12-20T01:48:31.761Z,0.00
2018-12-20T01:49:31.862Z,0.00
2018-12-20T01:50:31.765Z,0.00
2018-12-20T01:51:31.856Z,0.00
2018-12-20T01:52:31.965Z,0.00
2018-12-20T01:53:31.813Z,0.00
2018-12-20T01:54:31.974Z,0.00
2018-12-20T01:55:32.006Z,0.00
2018-12-20T01:56:32.095Z,0.00
2018-12-20T01:57:32.056Z,0.00
2018-12-20T01:58:31.897Z,0.00
2018-12-20T01:59:32.108Z,0.00
2018-12-20T02:00:31.939Z,0.00
2018-12-20T02:01:31.987Z,0.00
2018-12-20T02:02:31.973Z,0.00
2018-12-20T02:03:31.986Z,0.00
2018-12-20T02:04:32.199Z,0.00
2018-12-20T02:05:32.091Z,0.00
2018-12-20T02:06:32.148Z,0.00
2018-12-20T02:07:32.069Z,0.00
2018-12-20T02:08:32.113Z,0.00
2018-12-20T02:09:32.085Z,0.00
2018-12-20T02:10:32.104Z,0.00
2018-12-20T02:11:32.134Z,0.00
2018-12-20T02:12:32.152Z,0.00
2018-12-20T02:13:32.327Z,0.00
2018-12-20T02:14:32.295Z,0.00
2018-12-20T02:15:32.223Z,0.00
2018-12-20T02:16:32.200Z,0.00
2018-12-20T02:17:32.322Z,0.00
2018-12-20T02:18:32.387Z,0.00
2018-12-20T02:19:32.292Z,0.00
2018-12-20T02:20:32.270Z,0.00
2018-12-20T02:21:32.542Z,0.00
2018-12-20T02:22:32.506Z,0.00
2018-12-20T02:23:32.567Z,0.00
2018-12-20T02:24:32.547Z,0.00
2018-12-20T02:25:32.433Z,0.00
2018-12-20T02:26:32.513Z,0.00
2018-12-20T02:27:32.568Z,0.00
2018-12-20T02:28:32.427Z,0.00
2018-12-20T02:29:32.426Z,0.00
2018-12-20T02:30:32.447Z,0.00
2018-12-20T02:31:32.464Z,0.00
2018-12-20T02:32:32.492Z,0.00
2018-12-20T02:33:32.481Z,0.00
2018-12-20T02:34:32.536Z,0.00
2018-12-20T02:35:32.538Z,0.00
2018-12-20T02:36:32.592Z,0.00
2018-12-20T02:37:32.585Z,0.00
2018-12-20T02:38:32.606Z,0.00
2018-12-20T02:39:32.611Z,0.00
2018-12-20T02:40:32.767Z,0.00
2018-12-20T02:41:32.734Z,0.00
2018-12-20T02:42:32.890Z,0.00
2018-12-20T02:43:32.650Z,0.00
2018-12-20T02:44:32.888Z,0.00
2018-12-20T02:45:32.710Z,0.00
2018-12-20T02:46:32.703Z,0.00
2018-12-20T02:47:32.712Z,0.00
2018-12-20T02:48:32.729Z,0.00
2018-12-20T02:49:32.933Z,0.00
2018-12-20T02:50:32.789Z,0.00
2018-12-20T02:51:32.899Z,0.00
2018-12-20T02:52:32.828Z,0.00
2018-12-20T02:53:32.927Z,0.00
2018-12-20T02:54:32.950Z,0.00
2018-12-20T02:55:32.842Z,0.00
2018-12-20T02:56:32.907Z,0.00
2018-12-20T02:57:32.918Z,0.00
2018-12-20T02:58:32.895Z,0.00
2018-12-20T02:59:33.003Z,0.00
2018-12-20T03:00:32.993Z,0.00
2018-12-20T03:01:32.965Z,0.00
2018-12-20T03:02:33.177Z,0.00
2018-12-20T03:03:32.984Z,0.00
2018-12-20T03:04:33.308Z,0.00
2018-12-20T03:05:33.014Z,0.00
2018-12-20T03:06:33.197Z,0.00
2018-12-20T03:07:33.091Z,0.00
2018-12-20T03:08:33.427Z,0.00
2018-12-20T03:09:33.318Z,0.00
2018-12-20T03:10:33.107Z,0.00
2018-12-20T03:11:33.291Z,0.00
2018-12-20T03:12:33.264Z,0.00
2018-12-20T03:13:33.145Z,0.00
2018-12-20T03:14:33.438Z,0.00
2018-12-20T03:15:33.179Z,0.00
2018-12-20T03:16:33.194Z,0.00
2018-12-20T03:17:33.318Z,0.00
2018-12-20T03:18:33.233Z,0.00
2018-12-20T03:19:33.439Z,0.00
2018-12-20T03:20:33.331Z,0.00
2018-12-20T03:21:33.287Z,0.00
2018-12-20T03:22:33.507Z,0.00
2018-12-20T03:23:33.481Z,0.00
2018-12-20T03:24:33.354Z,0.00
2018-12-20T03:25:33.544Z,0.00
2018-12-20T03:26:33.389Z,0.00
2018-12-20T03:27:33.674Z,0.00
2018-12-20T03:28:33.416Z,0.00
2018-12-20T03:29:33.435Z,0.00
2018-12-20T03:30:33.433Z,0.00
2018-12-20T03:31:33.450Z,0.00
2018-12-20T03:32:33.833Z,0.00
2018-12-20T03:33:33.484Z,0.00
2018-12-20T03:34:33.519Z,0.00
2018-12-20T03:35:33.520Z,0.00
2018-12-20T03:36:33.795Z,0.00
2018-12-20T03:37:33.663Z,0.00
2018-12-20T03:38:33.826Z,0.00
2018-12-20T03:39:33.586Z,0.00
2018-12-20T03:40:33.608Z,0.00
2018-12-20T03:41:33.617Z,0.00
2018-12-20T03:42:33.677Z,0.00
2018-12-20T03:43:33.753Z,0.00
2018-12-20T03:44:33.714Z,0.00
2018-12-20T03:45:33.807Z,0.00
2018-12-20T03:46:33.816Z,0.00
2018-12-20T03:47:33.758Z,0.00
2018-12-20T03:48:33.743Z,0.00
2018-12-20T03:49:33.760Z,0.00
2018-12-20T03:50:33.779Z,0.00
2018-12-20T03:51:33.986Z,0.00
2018-12-20T03:52:34.029Z,0.00
2018-12-20T03:53:33.816Z,0.00
2018-12-20T03:54:34.024Z,0.00
2018-12-20T03:55:33.857Z,0.00
2018-12-20T03:56:33.864Z,0.00
2018-12-20T03:57:33.883Z,0.00
2018-12-20T03:58:33.905Z,0.00
2018-12-20T03:59:33.973Z,0.00
2018-12-20T04:00:34.182Z,0.00
2018-12-20T04:01:33.967Z,0.00
2018-12-20T04:02:34.232Z,0.00
2018-12-20T04:03:34.385Z,0.00
2018-12-20T04:04:34.063Z,0.00
2018-12-20T04:05:34.023Z,0.00
2018-12-20T04:06:34.183Z,0.00
2018-12-20T04:07:34.046Z,0.00
2018-12-20T04:08:34.092Z,0.00
2018-12-20T04:09:34.374Z,0.00
2018-12-20T04:10:34.197Z,0.00
2018-12-20T04:11:34.132Z,0.00
2018-12-20T04:12:34.235Z,0.00
2018-12-20T04:13:34.385Z,0.00
2018-12-20T04:14:34.436Z,0.00
2018-12-20T04:15:37.890Z,0.00
2018-12-20T04:16:34.201Z,0.00
2018-12-20T04:17:34.288Z,0.00
2018-12-20T04:18:34.229Z,0.00
2018-12-20T04:19:34.254Z,0.00
2018-12-20T04:20:34.376Z,0.00
2018-12-20T04:21:34.301Z,0.00
2018-12-20T04:22:34.306Z,0.00
2018-12-20T04:23:34.354Z,0.00
2018-12-20T04:24:34.491Z,0.00
2018-12-20T04:25:34.414Z,0.00
2018-12-20T04:26:34.375Z,0.00
2018-12-20T04:27:34.551Z,0.00
2018-12-20T04:28:34.647Z,0.00
2018-12-20T04:29:34.418Z,0.00
2018-12-20T04:30:34.437Z,0.00
2018-12-20T04:31:34.593Z,0.00
2018-12-20T04:32:34.473Z,0.00
2018-12-20T04:33:34.488Z,0.00
2018-12-20T04:34:34.603Z,0.00
2018-12-20T04:35:34.541Z,0.00
2018-12-20T04:36:34.562Z,0.00
2018-12-20T04:37:34.598Z,0.00
2018-12-20T04:38:34.655Z,0.00
2018-12-20T04:39:34.726Z,0.00
2018-12-20T04:40:34.619Z,0.00
2018-12-20T04:41:34.659Z,0.00
2018-12-20T04:42:34.754Z,0.00
2018-12-20T04:43:34.652Z,0.00
2018-12-20T04:44:34.745Z,0.00
2018-12-20T04:45:34.832Z,0.00
2018-12-20T04:46:34.849Z,0.00
2018-12-20T04:47:34.717Z,0.00
2018-12-20T04:48:34.983Z,0.00
2018-12-20T04:49:34.922Z,0.00
2018-12-20T04:50:34.769Z,0.00
2018-12-20T04:51:34.856Z,0.00
2018-12-20T04:52:34.869Z,0.00
2018-12-20T04:53:34.828Z,0.00
2018-12-20T04:54:34.920Z,0.00
2018-12-20T04:55:34.858Z,0.00
2018-12-20T04:56:34.968Z,0.00
2018-12-20T04:57:35.130Z,0.00
2018-12-20T04:58:34.939Z,0.00
2018-12-20T04:59:35.131Z,0.00
2018-12-20T05:00:35.123Z,0.00
2018-12-20T05:01:35.044Z,0.00
2018-12-20T05:02:34.970Z,0.00
2018-12-20T05:03:35.224Z,0.00
2018-12-20T05:04:35.001Z,0.00
2018-12-20T05:05:35.040Z,0.00
2018-12-20T05:06:35.077Z,0.00
2018-12-20T05:07:35.086Z,0.00
2018-12-20T05:08:35.358Z,0.00
2018-12-20T05:09:35.152Z,0.00
2018-12-20T05:10:35.237Z,0.00
2018-12-20T05:11:35.302Z,0.00
2018-12-20T05:12:35.151Z,0.00
2018-12-20T05:13:35.154Z,0.00
2018-12-20T05:14:35.181Z,0.00
2018-12-20T05:15:35.192Z,0.00
2018-12-20T05:16:35.270Z,0.00
2018-12-20T05:17:35.218Z,0.00
2018-12-20T05:18:35.321Z,0.00
2018-12-20T05:19:35.264Z,0.00
2018-12-20T05:20:35.522Z,0.00
2018-12-20T05:21:35.293Z,0.00
2018-12-20T05:22:35.419Z,0.00
2018-12-20T05:23:35.682Z,0.00
2018-12-20T05:24:35.584Z,0.00
2018-12-20T05:25:35.382Z,0.00
2018-12-20T05:26:35.661Z,0.00
2018-12-20T05:27:35.383Z,0.00
2018-12-20T05:28:35.414Z,0.00
2018-12-20T05:29:35.505Z,0.00
2018-12-20T05:30:35.523Z,0.00
2018-12-20T05:31:35.476Z,0.00
2018-12-20T05:32:35.477Z,0.00
2018-12-20T05:33:35.546Z,0.00
2018-12-20T05:34:35.510Z,0.00
2018-12-20T05:35:35.667Z,0.00
2018-12-20T05:36:35.556Z,0.00
2018-12-20T05:37:35.555Z,0.00
2018-12-20T05:38:35.767Z,0.00
2018-12-20T05:39:35.596Z,0.00
2018-12-20T05:40:35.601Z,0.00
2018-12-20T05:41:35.803Z,0.00
2018-12-20T05:42:35.910Z,0.00
2018-12-20T05:43:35.794Z,0.00
2018-12-20T05:44:35.728Z,0.00
2018-12-20T05:45:35.713Z,0.00
2018-12-20T05:46:35.703Z,0.00
2018-12-20T05:47:36.017Z,0.00
2018-12-20T05:48:35.837Z,0.00
2018-12-20T05:49:35.749Z,0.00
2018-12-20T05:50:35.922Z,0.00
2018-12-20T05:51:35.782Z,0.00
2018-12-20T05:52:35.899Z,0.00
2018-12-20T05:53:35.835Z,0.00
2018-12-20T05:54:35.997Z,0.00
2018-12-20T05:55:35.859Z,0.00
2018-12-20T05:56:35.875Z,0.00
2018-12-20T05:57:35.886Z,0.00
2018-12-20T05:58:35.902Z,0.00
2018-12-20T05:59:36.022Z,0.00
2018-12-20T06:00:35.951Z,0.00
2018-12-20T06:01:36.173Z,0.00
2018-12-20T06:02:36.028Z,0.00
2018-12-20T06:03:36.016Z,0.00
2018-12-20T06:04:36.001Z,0.00
2018-12-20T06:05:36.050Z,0.00
2018-12-20T06:06:36.031Z,0.00
2018-12-20T06:07:36.097Z,0.00
2018-12-20T06:08:36.212Z,0.00
2018-12-20T06:09:36.087Z,0.00
2018-12-20T06:10:36.097Z,0.00
2018-12-20T06:11:36.121Z,0.00
2018-12-20T06:12:36.323Z,0.00
2018-12-20T06:13:36.175Z,0.00
2018-12-20T06:14:36.381Z,0.00
2018-12-20T06:15:36.185Z,0.00
2018-12-20T06:16:36.374Z,0.00
2018-12-20T06:17:36.427Z,0.00
2018-12-20T06:18:36.233Z,0.00
2018-12-20T06:19:36.431Z,0.00
2018-12-20T06:20:36.283Z,0.00
2018-12-20T06:21:36.323Z,0.00
2018-12-20T06:22:36.299Z,0.00
2018-12-20T06:23:36.321Z,0.00
2018-12-20T06:24:36.337Z,0.00
2018-12-20T06:25:36.355Z,0.00
2018-12-20T06:26:36.369Z,0.00
2018-12-20T06:27:36.397Z,0.00
2018-12-20T06:28:36.482Z,0.00
2018-12-20T06:29:36.423Z,0.00
2018-12-20T06:30:36.523Z,0.00
2018-12-20T06:31:36.469Z,0.00
2018-12-20T06:32:36.474Z,0.00
2018-12-20T06:33:36.487Z,0.00
2018-12-20T06:34:36.620Z,0.00
2018-12-20T06:35:36.524Z,0.00
2018-12-20T06:36:36.540Z,0.00
2018-12-20T06:37:36.560Z,0.00
2018-12-20T06:38:36.594Z,0.00
2018-12-20T06:39:36.592Z,0.00
2018-12-20T06:40:36.607Z,0.00
2018-12-20T06:41:36.628Z,0.00
2018-12-20T06:42:36.641Z,0.00
2018-12-20T06:43:36.662Z,0.00
2018-12-20T06:44:36.675Z,0.00
2018-12-20T06:45:36.705Z,0.00
2018-12-20T06:46:36.721Z,0.00
2018-12-20T06:47:36.734Z,0.00
2018-12-20T06:48:36.752Z,0.00
2018-12-20T06:49:36.787Z,0.00
2018-12-20T06:50:36.773Z,0.00
2018-12-20T06:51:36.792Z,0.00
2018-12-20T06:52:36.820Z,4.00
2018-12-20T06:53:36.845Z,4.00
2018-12-20T06:54:36.844Z,4.00
2018-12-20T06:55:36.856Z,4.00
2018-12-20T06:56:36.886Z,4.00
2018-12-20T06:57:36.902Z,0.00
2018-12-20T06:58:36.931Z,4.00
2018-12-20T06:59:36.931Z,4.00
2018-12-20T07:00:36.951Z,8.00
2018-12-20T07:01:36.966Z,4.00
2018-12-20T07:02:38.535Z,4.00
2018-12-20T07:03:37.007Z,8.00
2018-12-20T07:04:37.016Z,4.00
2018-12-20T07:05:37.036Z,8.00
2018-12-20T07:06:37.051Z,8.00
2018-12-20T07:07:37.073Z,12.00
2018-12-20T07:08:37.096Z,12.00
2018-12-20T07:09:37.100Z,8.00
2018-12-20T07:10:37.119Z,12.00
2018-12-20T07:11:37.141Z,12.00
2018-12-20T07:12:37.164Z,16.00
2018-12-20T07:13:37.172Z,20.00
2018-12-20T07:14:37.204Z,20.00
2018-12-20T07:15:37.208Z,24.00
2018-12-20T07:16:37.222Z,28.00
2018-12-20T07:17:37.248Z,28.00
2018-12-20T07:18:37.248Z,24.00
2018-12-20T07:19:37.269Z,32.00
2018-12-20T07:20:37.284Z,40.00
2018-12-20T07:21:37.377Z,48.00
2018-12-20T07:22:37.318Z,48.00
2018-12-20T07:23:37.335Z,44.00
2018-12-20T07:24:37.369Z,44.00
2018-12-20T07:25:37.391Z,52.00
2018-12-20T07:26:37.385Z,64.00
2018-12-20T07:27:37.404Z,68.00
2018-12-20T07:28:37.421Z,68.00
2018-12-20T07:29:37.438Z,72.00
2018-12-20T07:30:37.468Z,76.00
2018-12-20T07:31:37.494Z,80.00
2018-12-20T07:32:37.495Z,88.00
2018-12-20T07:33:37.508Z,100.00
2018-12-20T07:34:37.531Z,124.00
2018-12-20T07:35:37.541Z,144.00
2018-12-20T07:36:37.566Z,180.00
2018-12-20T07:37:37.590Z,208.00
2018-12-20T07:38:37.592Z,280.00
2018-12-20T07:39:37.606Z,308.00
2018-12-20T07:40:38.199Z,320.00
2018-12-20T07:41:37.649Z,320.00
2018-12-20T07:42:37.660Z,400.00
2018-12-20T07:43:37.675Z,444.00
2018-12-20T07:44:37.713Z,516.00
2018-12-20T07:45:37.712Z,572.00
2018-12-20T07:46:38.190Z,648.00
2018-12-20T07:47:37.747Z,728.00
2018-12-20T07:48:37.771Z,724.00
2018-12-20T07:49:37.787Z,760.00
2018-12-20T07:50:39.149Z,716.00
2018-12-20T07:51:37.823Z,752.00
2018-12-20T07:52:37.958Z,720.00
2018-12-20T07:53:37.916Z,652.00
2018-12-20T07:54:37.877Z,560.00
2018-12-20T07:55:37.881Z,504.00
2018-12-20T07:56:37.907Z,480.00
2018-12-20T07:57:37.915Z,496.00
2018-12-20T07:58:37.929Z,444.00
2018-12-20T07:59:37.947Z,380.00
2018-12-20T08:00:37.969Z,384.00
2018-12-20T08:01:38.019Z,360.00
2018-12-20T08:02:38.007Z,296.00
2018-12-20T08:03:38.012Z,288.00
2018-12-20T08:04:38.027Z,296.00
2018-12-20T08:05:38.045Z,328.00
2018-12-20T08:06:38.064Z,324.00
2018-12-20T08:07:38.078Z,328.00
2018-12-20T08:08:38.101Z,340.00
2018-12-20T08:09:38.116Z,352.00
2018-12-20T08:10:38.135Z,332.00
2018-12-20T08:11:38.150Z,368.00
2018-12-20T08:12:38.175Z,356.00
2018-12-20T08:13:38.191Z,364.00
2018-12-20T08:14:38.203Z,376.00
2018-12-20T08:15:38.214Z,384.00
2018-12-20T08:16:45.882Z,404.00
2018-12-20T08:17:38.252Z,400.00
2018-12-20T08:18:38.261Z,396.00
2018-12-20T08:19:38.289Z,428.00
2018-12-20T08:20:38.305Z,456.00
2018-12-20T08:21:38.318Z,496.00
2018-12-20T08:22:38.334Z,484.00
2018-12-20T08:23:38.354Z,480.00
2018-12-20T08:24:38.371Z,484.00
2018-12-20T08:25:38.389Z,504.00
2018-12-20T08:26:38.419Z,544.00
2018-12-20T08:27:38.424Z,536.00
2018-12-20T08:28:38.440Z,604.00
2018-12-20T08:29:38.455Z,616.00
2018-12-20T08:30:38.474Z,644.00
2018-12-20T08:31:38.506Z,652.00
2018-12-20T08:32:38.508Z,672.00
2018-12-20T08:33:38.530Z,688.00
2018-12-20T08:34:38.563Z,664.00
2018-12-20T08:35:38.553Z,688.00
2018-12-20T08:36:38.594Z,728.00
2018-12-20T08:37:38.595Z,728.00
2018-12-20T08:38:38.646Z,732.00
2018-12-20T08:39:38.623Z,720.00
2018-12-20T08:40:38.644Z,776.00
2018-12-20T08:41:38.667Z,828.00
2018-12-20T08:42:38.685Z,864.00
2018-12-20T08:43:38.694Z,944.00
2018-12-20T08:44:38.716Z,1072.00
2018-12-20T08:45:38.729Z,1116.00
2018-12-20T08:46:38.752Z,1208.00
2018-12-20T08:47:38.767Z,1340.00
2018-12-20T08:48:38.783Z,1400.00
2018-12-20T08:49:38.803Z,1432.00
2018-12-20T08:50:38.816Z,1596.00
2018-12-20T08:51:38.836Z,1632.00
2018-12-20T08:52:38.889Z,1596.00
2018-12-20T08:53:38.862Z,1404.00
2018-12-20T08:54:38.886Z,1320.00
2018-12-20T08:55:38.899Z,1400.00
2018-12-20T08:56:38.912Z,1276.00
2018-12-20T08:57:38.928Z,1072.00
2018-12-20T08:58:39.103Z,928.00
2018-12-20T08:59:38.973Z,800.00
2018-12-20T09:00:38.987Z,788.00
2018-12-20T09:01:38.998Z,812.00
2018-12-20T09:02:39.033Z,760.00
2018-12-20T09:03:39.039Z,812.00
2018-12-20T09:04:39.055Z,868.00
2018-12-20T09:05:39.086Z,1024.00
2018-12-20T09:06:39.083Z,1028.00
2018-12-20T09:07:39.100Z,936.00
2018-12-20T09:08:39.127Z,1020.00
2018-12-20T09:09:39.140Z,1188.00
2018-12-20T09:10:39.157Z,1204.00
2018-12-20T09:11:39.173Z,1256.00
2018-12-20T09:12:39.204Z,1304.00
2018-12-20T09:13:39.215Z,1272.00
2018-12-20T09:14:39.229Z,1332.00
2018-12-20T09:15:39.246Z,1176.00
2018-12-20T09:16:39.256Z,1156.00
2018-12-20T09:17:39.280Z,1304.00
2018-12-20T09:18:39.312Z,1204.00
2018-12-20T09:19:39.308Z,1216.00
2018-12-20T09:20:39.329Z,1104.00
2018-12-20T09:21:39.347Z,1100.00
2018-12-20T09:22:39.365Z,1164.00
2018-12-20T09:23:39.419Z,1344.00
2018-12-20T09:24:39.402Z,1264.00
2018-12-20T09:25:39.412Z,1180.00
2018-12-20T09:26:39.428Z,1252.00
2018-12-20T09:27:39.448Z,1276.00
2018-12-20T09:28:39.474Z,1328.00
2018-12-20T09:29:39.497Z,1216.00
2018-12-20T09:30:39.496Z,1312.00
2018-12-20T09:31:39.517Z,1332.00
2018-12-20T09:32:39.533Z,1560.00
2018-12-20T09:33:39.559Z,1572.00
2018-12-20T09:34:39.576Z,1704.00
2018-12-20T09:35:39.593Z,2316.00
2018-12-20T09:36:39.656Z,2612.00
2018-12-20T09:37:39.636Z,2580.00
2018-12-20T09:38:39.644Z,2468.00
2018-12-20T09:39:39.658Z,2416.00
2018-12-20T09:40:39.688Z,2428.00
2018-12-20T09:41:39.714Z,2388.00
2018-12-20T09:42:39.719Z,2168.00
2018-12-20T09:43:39.739Z,2376.00
2018-12-20T09:44:39.747Z,2520.00
2018-12-20T09:45:39.824Z,2584.00
2018-12-20T09:46:39.779Z,2488.00
2018-12-20T09:47:39.810Z,2512.00
2018-12-20T09:48:39.818Z,2444.00
2018-12-20T09:49:39.831Z,2416.00
2018-12-20T09:50:39.853Z,2328.00
2018-12-20T09:51:39.864Z,2292.00
2018-12-20T09:52:39.884Z,2064.00
2018-12-20T09:53:39.952Z,2136.00
2018-12-20T09:54:39.919Z,2224.00
2018-12-20T09:55:39.947Z,2228.00
2018-12-20T09:56:39.963Z,2144.00
2018-12-20T09:57:39.986Z,2088.00
2018-12-20T09:58:40.000Z,2216.00
2018-12-20T09:59:40.005Z,2380.00
2018-12-20T10:00:40.024Z,2388.00
2018-12-20T10:01:40.048Z,2456.00
2018-12-20T10:02:40.059Z,2248.00
2018-12-20T10:03:40.078Z,2140.00
2018-12-20T10:04:40.098Z,2196.00
2018-12-20T10:05:40.127Z,2292.00
2018-12-20T10:06:40.137Z,2028.00
2018-12-20T10:07:40.182Z,2172.00
2018-12-20T10:08:40.174Z,2212.00
2018-12-20T10:09:40.231Z,1856.00
2018-12-20T10:10:40.204Z,1788.00
2018-12-20T10:11:40.224Z,1744.00
2018-12-20T10:12:40.245Z,1788.00
2018-12-20T10:13:40.267Z,1848.00
2018-12-20T10:14:40.278Z,1964.00
2018-12-20T10:15:40.287Z,2112.00
2018-12-20T10:16:40.311Z,2256.00
2018-12-20T10:17:40.329Z,2264.00
2018-12-20T10:18:40.345Z,2236.00
2018-12-20T10:19:40.372Z,2172.00
2018-12-20T10:20:40.386Z,2140.00
2018-12-20T10:21:40.398Z,2320.00
2018-12-20T10:22:40.425Z,2536.00
2018-12-20T10:23:40.440Z,2852.00
2018-12-20T10:24:40.456Z,3300.00
2018-12-20T10:25:40.468Z,3624.00
2018-12-20T10:26:40.492Z,3968.00
2018-12-20T10:27:40.513Z,4140.00
2018-12-20T10:28:40.524Z,4112.00
2018-12-20T10:29:40.534Z,4104.00
2018-12-20T10:30:40.551Z,4212.00
2018-12-20T10:31:40.573Z,4184.00
2018-12-20T10:32:40.593Z,3836.00
2018-12-20T10:33:40.609Z,3808.00
2018-12-20T10:34:40.637Z,3640.00
2018-12-20T10:35:40.641Z,3544.00
2018-12-20T10:36:40.659Z,3488.00
2018-12-20T10:37:40.696Z,3328.00
2018-12-20T10:38:41.740Z,3416.00
2018-12-20T10:39:40.728Z,3468.00
2018-12-20T10:40:40.751Z,3480.00
2018-12-20T10:41:40.757Z,3596.00
2018-12-20T10:42:40.774Z,3608.00
2018-12-20T10:43:40.790Z,3584.00
2018-12-20T10:44:40.801Z,3588.00
2018-12-20T10:45:40.831Z,3712.00
2018-12-20T10:46:40.837Z,3892.00
2018-12-20T10:47:40.861Z,3924.00
2018-12-20T10:48:40.879Z,3868.00
2018-12-20T10:49:40.892Z,3948.00
2018-12-20T10:50:40.916Z,3996.00
2018-12-20T10:51:40.929Z,3992.00
2018-12-20T10:52:40.945Z,3660.00
2018-12-20T10:53:40.968Z,3476.00
2018-12-20T10:54:40.986Z,3476.00
2018-12-20T10:55:41.001Z,3452.00
2018-12-20T10:56:41.013Z,3472.00
2018-12-20T10:57:41.039Z,3480.00
2018-12-20T10:58:41.069Z,3920.00
2018-12-20T10:59:41.080Z,3988.00
2018-12-20T11:00:41.117Z,4180.00
2018-12-20T11:01:41.107Z,4372.00
2018-12-20T11:02:41.138Z,4576.00
2018-12-20T11:03:41.148Z,4668.00
2018-12-20T11:04:41.166Z,4496.00
2018-12-20T11:05:41.180Z,4188.00
2018-12-20T11:06:41.199Z,4152.00
2018-12-20T11:07:41.234Z,4292.00
2018-12-20T11:08:41.249Z,4376.00
2018-12-20T11:09:41.250Z,4404.00
2018-12-20T11:10:41.268Z,4456.00
2018-12-20T11:11:41.289Z,4472.00
2018-12-20T11:12:41.309Z,4464.00
2018-12-20T11:13:41.337Z,4424.00
2018-12-20T11:14:41.355Z,4096.00
2018-12-20T11:15:41.363Z,3724.00
2018-12-20T11:16:41.381Z,3740.00
2018-12-20T11:17:41.402Z,3992.00
2018-12-20T11:18:41.417Z,4440.00
2018-12-20T11:19:41.438Z,4708.00
2018-12-20T11:20:41.461Z,4892.00
2018-12-20T11:21:41.477Z,5124.00
2018-12-20T11:22:41.488Z,5032.00
2018-12-20T11:23:41.504Z,4700.00
2018-12-20T11:24:41.523Z,4196.00
2018-12-20T11:25:41.549Z,3876.00
2018-12-20T11:26:41.556Z,3748.00
2018-12-20T11:27:41.585Z,3640.00
2018-12-20T11:28:41.598Z,3576.00
2018-12-20T11:29:41.619Z,3716.00
2018-12-20T11:30:41.665Z,3908.00
2018-12-20T11:31:41.672Z,4204.00
2018-12-20T11:32:41.672Z,4560.00
2018-12-20T11:33:41.696Z,4780.00
2018-12-20T11:34:41.715Z,5108.00
2018-12-20T11:35:41.746Z,5388.00
2018-12-20T11:36:41.772Z,5612.00
2018-12-20T11:37:41.764Z,6056.00
2018-12-20T11:38:41.779Z,6588.00
2018-12-20T11:39:41.797Z,6820.00
2018-12-20T11:40:41.830Z,7156.00
2018-12-20T11:41:41.836Z,7104.00
2018-12-20T11:42:41.859Z,6940.00
2018-12-20T11:43:41.877Z,6720.00
2018-12-20T11:44:41.890Z,6696.00
2018-12-20T11:45:41.905Z,6588.00
2018-12-20T11:46:41.929Z,6624.00
2018-12-20T11:47:45.828Z,6716.00
2018-12-20T11:48:41.964Z,6752.00
2018-12-20T11:49:41.985Z,6680.00
2018-12-20T11:50:42.008Z,6572.00
2018-12-20T11:51:42.018Z,6500.00
2018-12-20T11:52:42.658Z,6396.00
2018-12-20T11:53:42.077Z,6332.00
2018-12-20T11:54:42.094Z,6368.00
2018-12-20T11:55:42.092Z,6300.00
2018-12-20T11:56:42.121Z,6384.00
2018-12-20T11:57:42.133Z,6588.00
2018-12-20T11:58:42.147Z,6596.00
2018-12-20T11:59:42.163Z,6808.00
2018-12-20T12:00:42.192Z,6992.00
2018-12-20T12:01:42.204Z,7040.00
2018-12-20T12:02:42.224Z,7148.00
2018-12-20T12:03:42.258Z,7148.00
2018-12-20T12:04:42.259Z,7056.00
2018-12-20T12:05:42.288Z,7148.00
2018-12-20T12:06:42.338Z,7272.00
2018-12-20T12:07:42.331Z,7428.00
2018-12-20T12:08:42.345Z,7352.00
2018-12-20T12:09:42.359Z,7020.00
2018-12-20T12:10:42.373Z,7024.00
2018-12-20T12:11:42.403Z,6908.00
2018-12-20T12:12:42.409Z,6696.00
2018-12-20T12:13:42.449Z,6708.00
2018-12-20T12:14:42.482Z,6388.00
2018-12-20T12:15:42.479Z,5848.00
2018-12-20T12:16:42.508Z,5420.00
2018-12-20T12:17:42.510Z,5368.00
2018-12-20T12:18:42.522Z,5716.00
2018-12-20T12:19:42.545Z,6016.00
2018-12-20T12:20:42.593Z,6224.00
2018-12-20T12:21:42.600Z,6376.00
2018-12-20T12:22:42.622Z,6132.00
2018-12-20T12:23:42.622Z,6156.00
2018-12-20T12:24:42.647Z,5864.00
2018-12-20T12:25:42.656Z,5568.00
2018-12-20T12:26:42.678Z,5156.00
2018-12-20T12:27:42.693Z,4948.00
2018-12-20T12:28:42.714Z,4992.00
2018-12-20T12:29:42.741Z,4980.00
2018-12-20T12:30:42.756Z,4976.00
2018-12-20T12:31:42.788Z,4832.00
2018-12-20T12:32:42.811Z,4392.00
2018-12-20T12:33:42.817Z,3724.00
2018-12-20T12:34:42.824Z,3144.00
2018-12-20T12:35:42.844Z,2780.00
2018-12-20T12:36:42.862Z,2832.00
2018-12-20T12:37:42.891Z,3020.00
2018-12-20T12:38:42.906Z,3316.00
2018-12-20T12:39:42.924Z,3568.00
2018-12-20T12:40:42.935Z,3788.00
2018-12-20T12:41:42.956Z,3868.00
2018-12-20T12:42:42.973Z,3932.00
2018-12-20T12:43:43.032Z,3980.00
2018-12-20T12:44:43.011Z,3724.00
2018-12-20T12:45:43.047Z,3064.00
2018-12-20T12:46:43.058Z,2644.00
2018-12-20T12:47:43.075Z,2420.00
2018-12-20T12:48:43.084Z,2240.00